sensor_id;sensor_type;location;lat;lon;timestamp;P1;durP1;ratioP1;P2;durP2;ratioP2
73693;SDS011;61997;53.974;11.670;2022-09-27T00:01:34;18.00;;;11.20;;
73693;SDS011;61997;53.974;11.670;2022-09-27T00:04:00;19.65;;;10.98;;
73693;SDS011;61997;53.974;11.670;2022-09-27T00:06:27;19.25;;;10.85;;
73693;SDS011;61997;53.974;11.670;2022-09-27T00:08:54;17.42;;;11.25;;
73693;SDS011;61997;53.974;11.670;2022-09-27T00:11:31;19.17;;;11.75;;
73693;SDS011;61997;53.974;11.670;2022-09-27T00:14:01;17.00;;;11.18;;
73693;SDS011;61997;53.974;11.670;2022-09-27T00:16:29;15.23;;;10.13;;
73693;SDS011;61997;53.974;11.670;2022-09-27T00:18:59;18.88;;;10.98;;
73693;SDS011;61997;53.974;11.670;2022-09-27T00:21:26;18.45;;;11.18;;
73693;SDS011;61997;53.974;11.670;2022-09-27T00:23:54;18.65;;;10.50;;
73693;SDS011;61997;53.974;11.670;2022-09-27T00:26:20;18.13;;;10.07;;
73693;SDS011;61997;53.974;11.670;2022-09-27T00:28:45;17.10;;;10.15;;
73693;SDS011;61997;53.974;11.670;2022-09-27T00:31:19;18.13;;;10.52;;
73693;SDS011;61997;53.974;11.670;2022-09-27T00:33:47;16.30;;;10.45;;
73693;SDS011;61997;53.974;11.670;2022-09-27T00:36:13;17.90;;;9.70;;
73693;SDS011;61997;53.974;11.670;2022-09-27T00:38:42;17.05;;;9.93;;
73693;SDS011;61997;53.974;11.670;2022-09-27T00:41:30;18.33;;;9.95;;
73693;SDS011;61997;53.974;11.670;2022-09-27T00:43:58;15.77;;;9.43;;
73693;SDS011;61997;53.974;11.670;2022-09-27T00:46:30;15.73;;;9.32;;
73693;SDS011;61997;53.974;11.670;2022-09-27T00:49:05;15.98;;;10.10;;
73693;SDS011;61997;53.974;11.670;2022-09-27T00:51:43;16.98;;;9.88;;
73693;SDS011;61997;53.974;11.670;2022-09-27T00:54:12;17.83;;;9.40;;
73693;SDS011;61997;53.974;11.670;2022-09-27T00:56:39;17.30;;;9.80;;
73693;SDS011;61997;53.974;11.670;2022-09-27T00:59:08;16.30;;;9.23;;
73693;SDS011;61997;53.974;11.670;2022-09-27T01:01:36;17.17;;;9.82;;
73693;SDS011;61997;53.974;11.670;2022-09-27T01:04:02;16.20;;;9.35;;
73693;SDS011;61997;53.974;11.670;2022-09-27T01:06:36;13.20;;;8.63;;
73693;SDS011;61997;53.974;11.670;2022-09-27T01:09:03;15.82;;;8.75;;
73693;SDS011;61997;53.974;11.670;2022-09-27T01:20:40;15.15;;;8.45;;
73693;SDS011;61997;53.974;11.670;2022-09-27T01:31:32;14.77;;;8.95;;
73693;SDS011;61997;53.974;11.670;2022-09-27T01:34:29;15.90;;;8.95;;
73693;SDS011;61997;53.974;11.670;2022-09-27T01:42:56;14.70;;;8.27;;
73693;SDS011;61997;53.974;11.670;2022-09-27T01:45:28;13.27;;;8.27;;
73693;SDS011;61997;53.974;11.670;2022-09-27T01:47:58;13.73;;;7.80;;
73693;SDS011;61997;53.974;11.670;2022-09-27T01:50:28;13.32;;;7.70;;
73693;SDS011;61997;53.974;11.670;2022-09-27T01:53:05;15.43;;;8.73;;
73693;SDS011;61997;53.974;11.670;2022-09-27T01:55:34;12.02;;;8.02;;
73693;SDS011;61997;53.974;11.670;2022-09-27T01:58:03;14.10;;;7.75;;
73693;SDS011;61997;53.974;11.670;2022-09-27T02:00:31;15.20;;;7.90;;
73693;SDS011;61997;53.974;11.670;2022-09-27T02:02:57;12.00;;;7.55;;
73693;SDS011;61997;53.974;11.670;2022-09-27T02:05:28;12.68;;;7.70;;
73693;SDS011;61997;53.974;11.670;2022-09-27T02:07:57;13.65;;;7.80;;
73693;SDS011;61997;53.974;11.670;2022-09-27T02:10:28;12.73;;;7.22;;
73693;SDS011;61997;53.974;11.670;2022-09-27T02:12:59;13.35;;;7.75;;
73693;SDS011;61997;53.974;11.670;2022-09-27T02:15:31;15.20;;;7.70;;
73693;SDS011;61997;53.974;11.670;2022-09-27T02:18:16;10.82;;;6.80;;
73693;SDS011;61997;53.974;11.670;2022-09-27T02:20:54;14.35;;;7.50;;
73693;SDS011;61997;53.974;11.670;2022-09-27T02:28:47;12.93;;;7.10;;
73693;SDS011;61997;53.974;11.670;2022-09-27T02:31:17;11.68;;;6.75;;
73693;SDS011;61997;53.974;11.670;2022-09-27T02:36:20;10.50;;;6.47;;
73693;SDS011;61997;53.974;11.670;2022-09-27T02:38:46;11.82;;;7.43;;
73693;SDS011;61997;53.974;11.670;2022-09-27T02:41:13;11.23;;;6.70;;
73693;SDS011;61997;53.974;11.670;2022-09-27T02:43:39;10.27;;;6.28;;
73693;SDS011;61997;53.974;11.670;2022-09-27T03:00:08;13.00;;;6.82;;
73693;SDS011;61997;53.974;11.670;2022-09-27T03:05:58;10.30;;;6.22;;
73693;SDS011;61997;53.974;11.670;2022-09-27T03:08:29;13.20;;;6.63;;
73693;SDS011;61997;53.974;11.670;2022-09-27T03:10:55;9.73;;;6.38;;
73693;SDS011;61997;53.974;11.670;2022-09-27T03:13:20;9.88;;;6.32;;
73693;SDS011;61997;53.974;11.670;2022-09-27T03:15:45;11.23;;;5.85;;
73693;SDS011;61997;53.974;11.670;2022-09-27T03:18:11;12.05;;;6.55;;
73693;SDS011;61997;53.974;11.670;2022-09-27T03:20:36;10.38;;;5.70;;
73693;SDS011;61997;53.974;11.670;2022-09-27T03:23:01;11.63;;;6.38;;
73693;SDS011;61997;53.974;11.670;2022-09-27T03:25:27;9.73;;;5.75;;
73693;SDS011;61997;53.974;11.670;2022-09-27T03:27:52;10.55;;;6.20;;
73693;SDS011;61997;53.974;11.670;2022-09-27T03:30:18;10.13;;;6.25;;
73693;SDS011;61997;53.974;11.670;2022-09-27T03:32:44;11.70;;;6.30;;
73693;SDS011;61997;53.974;11.670;2022-09-27T03:35:10;10.90;;;5.57;;
73693;SDS011;61997;53.974;11.670;2022-09-27T03:37:36;11.50;;;6.00;;
73693;SDS011;61997;53.974;11.670;2022-09-27T03:40:02;8.25;;;5.60;;
73693;SDS011;61997;53.974;11.670;2022-09-27T03:42:28;10.00;;;5.85;;
73693;SDS011;61997;53.974;11.670;2022-09-27T03:44:54;10.52;;;5.93;;
73693;SDS011;61997;53.974;11.670;2022-09-27T03:47:19;9.82;;;5.35;;
73693;SDS011;61997;53.974;11.670;2022-09-27T03:49:47;10.05;;;5.60;;
73693;SDS011;61997;53.974;11.670;2022-09-27T03:52:13;6.93;;;4.65;;
73693;SDS011;61997;53.974;11.670;2022-09-27T03:54:39;8.60;;;4.90;;
73693;SDS011;61997;53.974;11.670;2022-09-27T03:57:04;8.98;;;5.32;;
73693;SDS011;61997;53.974;11.670;2022-09-27T03:59:30;10.75;;;5.38;;
73693;SDS011;61997;53.974;11.670;2022-09-27T04:01:55;11.00;;;6.07;;
73693;SDS011;61997;53.974;11.670;2022-09-27T04:04:21;11.35;;;5.10;;
73693;SDS011;61997;53.974;11.670;2022-09-27T04:06:46;9.07;;;5.32;;
73693;SDS011;61997;53.974;11.670;2022-09-27T04:09:11;9.45;;;5.38;;
73693;SDS011;61997;53.974;11.670;2022-09-27T04:11:37;8.77;;;5.07;;
73693;SDS011;61997;53.974;11.670;2022-09-27T04:14:02;9.40;;;5.13;;
73693;SDS011;61997;53.974;11.670;2022-09-27T04:16:29;8.43;;;5.45;;
73693;SDS011;61997;53.974;11.670;2022-09-27T04:18:56;8.40;;;5.30;;
73693;SDS011;61997;53.974;11.670;2022-09-27T04:21:21;8.05;;;4.80;;
73693;SDS011;61997;53.974;11.670;2022-09-27T04:23:47;8.65;;;4.90;;
73693;SDS011;61997;53.974;11.670;2022-09-27T04:26:12;8.85;;;5.22;;
73693;SDS011;61997;53.974;11.670;2022-09-27T04:28:38;8.88;;;4.78;;
73693;SDS011;61997;53.974;11.670;2022-09-27T04:31:04;8.63;;;4.55;;
73693;SDS011;61997;53.974;11.670;2022-09-27T04:33:29;6.65;;;4.55;;
73693;SDS011;61997;53.974;11.670;2022-09-27T04:35:55;7.80;;;4.03;;
73693;SDS011;61997;53.974;11.670;2022-09-27T04:38:39;8.52;;;5.28;;
73693;SDS011;61997;53.974;11.670;2022-09-27T04:41:04;7.47;;;4.25;;
73693;SDS011;61997;53.974;11.670;2022-09-27T04:43:30;9.27;;;5.07;;
73693;SDS011;61997;53.974;11.670;2022-09-27T04:45:55;6.95;;;4.45;;
73693;SDS011;61997;53.974;11.670;2022-09-27T04:48:21;6.88;;;4.57;;
73693;SDS011;61997;53.974;11.670;2022-09-27T04:50:46;7.70;;;4.90;;
73693;SDS011;61997;53.974;11.670;2022-09-27T04:53:14;6.53;;;4.43;;
73693;SDS011;61997;53.974;11.670;2022-09-27T04:55:49;7.80;;;4.70;;
73693;SDS011;61997;53.974;11.670;2022-09-27T04:58:15;8.60;;;4.43;;
73693;SDS011;61997;53.974;11.670;2022-09-27T05:00:41;7.45;;;4.55;;
73693;SDS011;61997;53.974;11.670;2022-09-27T05:03:07;7.40;;;3.90;;
73693;SDS011;61997;53.974;11.670;2022-09-27T05:05:32;6.47;;;4.15;;
73693;SDS011;61997;53.974;11.670;2022-09-27T05:07:58;4.55;;;3.47;;
73693;SDS011;61997;53.974;11.670;2022-09-27T05:10:24;7.80;;;4.30;;
73693;SDS011;61997;53.974;11.670;2022-09-27T05:12:49;6.88;;;4.32;;
73693;SDS011;61997;53.974;11.670;2022-09-27T05:15:15;5.70;;;4.18;;
73693;SDS011;61997;53.974;11.670;2022-09-27T05:17:40;5.95;;;4.13;;
73693;SDS011;61997;53.974;11.670;2022-09-27T05:20:05;8.00;;;4.15;;
73693;SDS011;61997;53.974;11.670;2022-09-27T05:22:31;7.30;;;4.00;;
73693;SDS011;61997;53.974;11.670;2022-09-27T05:24:56;7.28;;;3.97;;
73693;SDS011;61997;53.974;11.670;2022-09-27T05:27:22;6.25;;;3.90;;
73693;SDS011;61997;53.974;11.670;2022-09-27T05:29:47;5.60;;;3.70;;
73693;SDS011;61997;53.974;11.670;2022-09-27T05:32:13;6.15;;;3.85;;
73693;SDS011;61997;53.974;11.670;2022-09-27T05:34:38;6.95;;;4.18;;
73693;SDS011;61997;53.974;11.670;2022-09-27T05:37:04;7.25;;;4.07;;
73693;SDS011;61997;53.974;11.670;2022-09-27T05:39:30;6.95;;;3.90;;
73693;SDS011;61997;53.974;11.670;2022-09-27T05:41:55;6.55;;;3.65;;
73693;SDS011;61997;53.974;11.670;2022-09-27T05:44:21;8.25;;;4.65;;
73693;SDS011;61997;53.974;11.670;2022-09-27T05:46:46;6.63;;;3.63;;
73693;SDS011;61997;53.974;11.670;2022-09-27T05:49:12;7.47;;;3.90;;
73693;SDS011;61997;53.974;11.670;2022-09-27T05:51:37;6.88;;;3.97;;
73693;SDS011;61997;53.974;11.670;2022-09-27T05:54:03;7.32;;;3.67;;
73693;SDS011;61997;53.974;11.670;2022-09-27T05:56:28;7.53;;;4.13;;
73693;SDS011;61997;53.974;11.670;2022-09-27T05:58:53;5.55;;;3.50;;
73693;SDS011;61997;53.974;11.670;2022-09-27T06:01:19;5.45;;;3.50;;
73693;SDS011;61997;53.974;11.670;2022-09-27T06:03:44;7.40;;;4.13;;
73693;SDS011;61997;53.974;11.670;2022-09-27T06:06:11;4.65;;;3.58;;
73693;SDS011;61997;53.974;11.670;2022-09-27T06:08:37;6.07;;;3.17;;
73693;SDS011;61997;53.974;11.670;2022-09-27T06:11:04;6.57;;;4.20;;
73693;SDS011;61997;53.974;11.670;2022-09-27T06:13:34;6.82;;;3.45;;
73693;SDS011;61997;53.974;11.670;2022-09-27T06:16:03;6.13;;;3.80;;
73693;SDS011;61997;53.974;11.670;2022-09-27T06:18:29;6.90;;;3.42;;
73693;SDS011;61997;53.974;11.670;2022-09-27T06:20:54;5.95;;;3.53;;
73693;SDS011;61997;53.974;11.670;2022-09-27T06:23:21;5.88;;;3.35;;
73693;SDS011;61997;53.974;11.670;2022-09-27T06:25:47;7.25;;;3.80;;
73693;SDS011;61997;53.974;11.670;2022-09-27T06:28:13;6.32;;;3.13;;
73693;SDS011;61997;53.974;11.670;2022-09-27T06:30:39;5.60;;;3.13;;
73693;SDS011;61997;53.974;11.670;2022-09-27T06:33:06;5.55;;;3.55;;
73693;SDS011;61997;53.974;11.670;2022-09-27T06:35:33;5.72;;;3.15;;
73693;SDS011;61997;53.974;11.670;2022-09-27T06:38:01;5.95;;;3.20;;
73693;SDS011;61997;53.974;11.670;2022-09-27T06:40:28;5.80;;;3.20;;
73693;SDS011;61997;53.974;11.670;2022-09-27T06:42:54;4.45;;;3.10;;
73693;SDS011;61997;53.974;11.670;2022-09-27T06:45:22;4.80;;;2.75;;
73693;SDS011;61997;53.974;11.670;2022-09-27T06:47:47;5.85;;;3.35;;
73693;SDS011;61997;53.974;11.670;2022-09-27T06:50:13;4.50;;;2.83;;
73693;SDS011;61997;53.974;11.670;2022-09-27T06:52:45;5.65;;;3.00;;
73693;SDS011;61997;53.974;11.670;2022-09-27T06:55:11;4.88;;;3.10;;
73693;SDS011;61997;53.974;11.670;2022-09-27T06:57:36;4.18;;;2.63;;
73693;SDS011;61997;53.974;11.670;2022-09-27T07:00:20;5.93;;;3.28;;
73693;SDS011;61997;53.974;11.670;2022-09-27T07:02:50;5.90;;;3.25;;
73693;SDS011;61997;53.974;11.670;2022-09-27T07:05:20;5.05;;;3.17;;
73693;SDS011;61997;53.974;11.670;2022-09-27T07:07:45;5.50;;;3.10;;
73693;SDS011;61997;53.974;11.670;2022-09-27T07:10:12;5.25;;;2.90;;
73693;SDS011;61997;53.974;11.670;2022-09-27T07:12:38;6.45;;;3.45;;
73693;SDS011;61997;53.974;11.670;2022-09-27T07:15:04;4.78;;;2.75;;
73693;SDS011;61997;53.974;11.670;2022-09-27T07:17:30;5.82;;;2.80;;
73693;SDS011;61997;53.974;11.670;2022-09-27T07:19:55;3.92;;;2.58;;
73693;SDS011;61997;53.974;11.670;2022-09-27T07:22:21;5.40;;;3.20;;
73693;SDS011;61997;53.974;11.670;2022-09-27T07:24:46;4.63;;;2.80;;
73693;SDS011;61997;53.974;11.670;2022-09-27T07:27:12;4.88;;;2.80;;
73693;SDS011;61997;53.974;11.670;2022-09-27T07:29:39;4.10;;;2.67;;
73693;SDS011;61997;53.974;11.670;2022-09-27T07:32:04;5.40;;;3.05;;
73693;SDS011;61997;53.974;11.670;2022-09-27T07:34:31;6.07;;;3.20;;
73693;SDS011;61997;53.974;11.670;2022-09-27T07:36:58;5.80;;;3.10;;
73693;SDS011;61997;53.974;11.670;2022-09-27T07:39:24;6.35;;;3.20;;
73693;SDS011;61997;53.974;11.670;2022-09-27T07:41:50;3.47;;;2.42;;
73693;SDS011;61997;53.974;11.670;2022-09-27T07:44:16;5.93;;;3.10;;
73693;SDS011;61997;53.974;11.670;2022-09-27T07:46:41;4.72;;;2.65;;
73693;SDS011;61997;53.974;11.670;2022-09-27T07:49:07;6.28;;;3.20;;
73693;SDS011;61997;53.974;11.670;2022-09-27T07:51:32;6.05;;;3.15;;
73693;SDS011;61997;53.974;11.670;2022-09-27T07:53:58;5.88;;;3.25;;
73693;SDS011;61997;53.974;11.670;2022-09-27T07:56:25;6.05;;;3.25;;
73693;SDS011;61997;53.974;11.670;2022-09-27T07:58:51;6.60;;;3.38;;
73693;SDS011;61997;53.974;11.670;2022-09-27T08:01:16;5.82;;;2.90;;
73693;SDS011;61997;53.974;11.670;2022-09-27T08:03:41;5.40;;;3.20;;
73693;SDS011;61997;53.974;11.670;2022-09-27T08:06:08;4.78;;;2.97;;
73693;SDS011;61997;53.974;11.670;2022-09-27T08:08:33;5.40;;;3.22;;
73693;SDS011;61997;53.974;11.670;2022-09-27T08:10:58;6.43;;;3.55;;
73693;SDS011;61997;53.974;11.670;2022-09-27T08:13:24;6.45;;;3.17;;
73693;SDS011;61997;53.974;11.670;2022-09-27T08:15:49;6.18;;;3.05;;
73693;SDS011;61997;53.974;11.670;2022-09-27T08:18:16;6.30;;;3.35;;
73693;SDS011;61997;53.974;11.670;2022-09-27T08:20:42;7.95;;;3.55;;
73693;SDS011;61997;53.974;11.670;2022-09-27T08:23:08;6.95;;;3.40;;
73693;SDS011;61997;53.974;11.670;2022-09-27T08:25:33;6.50;;;3.80;;
73693;SDS011;61997;53.974;11.670;2022-09-27T08:27:59;6.75;;;5.15;;
73693;SDS011;61997;53.974;11.670;2022-09-27T08:30:26;6.30;;;4.03;;
73693;SDS011;61997;53.974;11.670;2022-09-27T08:32:53;7.90;;;5.22;;
73693;SDS011;61997;53.974;11.670;2022-09-27T08:35:20;9.35;;;5.90;;
73693;SDS011;61997;53.974;11.670;2022-09-27T08:37:51;9.32;;;5.53;;
73693;SDS011;61997;53.974;11.670;2022-09-27T08:40:18;10.60;;;5.50;;
73693;SDS011;61997;53.974;11.670;2022-09-27T08:45:32;11.63;;;7.20;;
73693;SDS011;61997;53.974;11.670;2022-09-27T08:48:01;13.93;;;7.80;;
73693;SDS011;61997;53.974;11.670;2022-09-27T08:50:30;13.65;;;7.95;;
73693;SDS011;61997;53.974;11.670;2022-09-27T08:53:01;12.90;;;7.63;;
73693;SDS011;61997;53.974;11.670;2022-09-27T08:55:31;12.88;;;8.25;;
73693;SDS011;61997;53.974;11.670;2022-09-27T08:58:01;13.15;;;9.10;;
73693;SDS011;61997;53.974;11.670;2022-09-27T09:00:29;12.73;;;8.75;;
73693;SDS011;61997;53.974;11.670;2022-09-27T09:02:55;16.42;;;8.95;;
73693;SDS011;61997;53.974;11.670;2022-09-27T09:05:26;17.45;;;9.85;;
73693;SDS011;61997;53.974;11.670;2022-09-27T09:16:16;16.58;;;10.50;;
73693;SDS011;61997;53.974;11.670;2022-09-27T09:24:18;20.92;;;11.23;;
73693;SDS011;61997;53.974;11.670;2022-09-27T09:29:30;18.98;;;11.73;;
73693;SDS011;61997;53.974;11.670;2022-09-27T09:32:40;17.38;;;11.77;;
73693;SDS011;61997;53.974;11.670;2022-09-27T09:35:28;18.15;;;11.88;;
73693;SDS011;61997;53.974;11.670;2022-09-27T09:41:20;20.25;;;12.52;;
73693;SDS011;61997;53.974;11.670;2022-09-27T09:43:49;18.00;;;11.18;;
73693;SDS011;61997;53.974;11.670;2022-09-27T09:46:35;20.08;;;12.07;;
73693;SDS011;61997;53.974;11.670;2022-09-27T09:51:51;18.98;;;12.00;;
73693;SDS011;61997;53.974;11.670;2022-09-27T09:54:25;19.52;;;11.60;;
73693;SDS011;61997;53.974;11.670;2022-09-27T09:57:05;20.23;;;12.82;;
73693;SDS011;61997;53.974;11.670;2022-09-27T09:59:41;17.92;;;11.00;;
73693;SDS011;61997;53.974;11.670;2022-09-27T10:04:39;20.42;;;12.32;;
73693;SDS011;61997;53.974;11.670;2022-09-27T10:07:04;18.67;;;11.30;;
73693;SDS011;61997;53.974;11.670;2022-09-27T10:09:30;19.20;;;11.10;;
73693;SDS011;61997;53.974;11.670;2022-09-27T10:11:57;18.95;;;11.25;;
73693;SDS011;61997;53.974;11.670;2022-09-27T10:14:24;17.25;;;11.02;;
73693;SDS011;61997;53.974;11.670;2022-09-27T10:16:54;17.92;;;12.02;;
73693;SDS011;61997;53.974;11.670;2022-09-27T10:19:25;19.90;;;11.60;;
73693;SDS011;61997;53.974;11.670;2022-09-27T10:21:54;21.20;;;12.10;;
73693;SDS011;61997;53.974;11.670;2022-09-27T10:24:24;23.00;;;12.13;;
73693;SDS011;61997;53.974;11.670;2022-09-27T10:26:49;17.38;;;11.73;;
73693;SDS011;61997;53.974;11.670;2022-09-27T10:31:45;19.70;;;11.55;;
73693;SDS011;61997;53.974;11.670;2022-09-27T10:39:36;22.33;;;12.05;;
73693;SDS011;61997;53.974;11.670;2022-09-27T10:42:48;19.30;;;10.95;;
73693;SDS011;61997;53.974;11.670;2022-09-27T10:44:57;18.48;;;10.77;;
73693;SDS011;61997;53.974;11.670;2022-09-27T10:47:22;15.98;;;10.13;;
73693;SDS011;61997;53.974;11.670;2022-09-27T10:49:51;14.77;;;10.30;;
73693;SDS011;61997;53.974;11.670;2022-09-27T10:52:28;16.30;;;9.95;;
73693;SDS011;61997;53.974;11.670;2022-09-27T10:54:59;14.80;;;9.65;;
73693;SDS011;61997;53.974;11.670;2022-09-27T10:57:30;17.55;;;10.27;;
73693;SDS011;61997;53.974;11.670;2022-09-27T11:00:04;16.27;;;9.88;;
73693;SDS011;61997;53.974;11.670;2022-09-27T11:02:33;13.20;;;8.32;;
73693;SDS011;61997;53.974;11.670;2022-09-27T11:05:04;14.90;;;9.63;;
73693;SDS011;61997;53.974;11.670;2022-09-27T11:07:34;15.80;;;10.18;;
73693;SDS011;61997;53.974;11.670;2022-09-27T11:12:28;12.43;;;8.48;;
73693;SDS011;61997;53.974;11.670;2022-09-27T11:15:03;14.38;;;8.50;;
73693;SDS011;61997;53.974;11.670;2022-09-27T11:29:01;13.93;;;8.80;;
73693;SDS011;61997;53.974;11.670;2022-09-27T11:31:44;12.68;;;8.18;;
73693;SDS011;61997;53.974;11.670;2022-09-27T11:34:53;13.60;;;8.52;;
73693;SDS011;61997;53.974;11.670;2022-09-27T11:40:15;13.27;;;8.23;;
73693;SDS011;61997;53.974;11.670;2022-09-27T11:49:17;14.77;;;9.70;;
73693;SDS011;61997;53.974;11.670;2022-09-27T11:52:05;15.02;;;9.18;;
73693;SDS011;61997;53.974;11.670;2022-09-27T12:07:51;15.38;;;10.23;;
73693;SDS011;61997;53.974;11.670;2022-09-27T12:10:24;12.27;;;8.18;;
73693;SDS011;61997;53.974;11.670;2022-09-27T12:12:51;11.95;;;8.88;;
73693;SDS011;61997;53.974;11.670;2022-09-27T12:15:22;15.05;;;9.40;;
73693;SDS011;61997;53.974;11.670;2022-09-27T12:17:54;15.27;;;9.13;;
73693;SDS011;61997;53.974;11.670;2022-09-27T12:20:29;16.08;;;8.88;;
73693;SDS011;61997;53.974;11.670;2022-09-27T12:22:59;16.27;;;9.57;;
73693;SDS011;61997;53.974;11.670;2022-09-27T12:25:28;12.93;;;8.65;;
73693;SDS011;61997;53.974;11.670;2022-09-27T12:28:09;15.77;;;9.38;;
73693;SDS011;61997;53.974;11.670;2022-09-27T12:33:17;13.70;;;8.80;;
73693;SDS011;61997;53.974;11.670;2022-09-27T12:35:53;15.13;;;8.95;;
73693;SDS011;61997;53.974;11.670;2022-09-27T12:38:29;15.88;;;9.57;;
73693;SDS011;61997;53.974;11.670;2022-09-27T12:41:01;15.25;;;9.23;;
73693;SDS011;61997;53.974;11.670;2022-09-27T12:43:29;17.95;;;9.52;;
73693;SDS011;61997;53.974;11.670;2022-09-27T12:46:12;16.88;;;10.82;;
73693;SDS011;61997;53.974;11.670;2022-09-27T12:51:46;18.17;;;11.05;;
73693;SDS011;61997;53.974;11.670;2022-09-27T12:57:00;17.30;;;11.13;;
73693;SDS011;61997;53.974;11.670;2022-09-27T13:04:39;19.42;;;11.98;;
73693;SDS011;61997;53.974;11.670;2022-09-27T13:10:04;21.48;;;12.48;;
73693;SDS011;61997;53.974;11.670;2022-09-27T13:12:50;20.20;;;12.95;;
73693;SDS011;61997;53.974;11.670;2022-09-27T13:17:58;22.05;;;13.75;;
73693;SDS011;61997;53.974;11.670;2022-09-27T13:22:55;20.23;;;12.77;;
73693;SDS011;61997;53.974;11.670;2022-09-27T13:28:33;22.05;;;12.45;;
73693;SDS011;61997;53.974;11.670;2022-09-27T13:31:01;21.83;;;11.43;;
73693;SDS011;61997;53.974;11.670;2022-09-27T13:47:01;16.40;;;10.50;;
73693;SDS011;61997;53.974;11.670;2022-09-27T13:49:32;17.33;;;11.20;;
73693;SDS011;61997;53.974;11.670;2022-09-27T13:52:13;18.23;;;11.30;;
73693;SDS011;61997;53.974;11.670;2022-09-27T13:59:58;18.70;;;9.52;;
73693;SDS011;61997;53.974;11.670;2022-09-27T14:02:26;15.82;;;10.18;;
73693;SDS011;61997;53.974;11.670;2022-09-27T14:04:53;14.65;;;9.75;;
73693;SDS011;61997;53.974;11.670;2022-09-27T14:07:21;18.35;;;10.48;;
73693;SDS011;61997;53.974;11.670;2022-09-27T14:09:51;20.92;;;10.82;;
73693;SDS011;61997;53.974;11.670;2022-09-27T14:14:48;18.73;;;10.38;;
73693;SDS011;61997;53.974;11.670;2022-09-27T14:17:15;15.07;;;9.77;;
73693;SDS011;61997;53.974;11.670;2022-09-27T14:19:41;13.77;;;9.98;;
73693;SDS011;61997;53.974;11.670;2022-09-27T14:22:16;18.48;;;10.52;;
73693;SDS011;61997;53.974;11.670;2022-09-27T14:24:44;16.90;;;9.63;;
73693;SDS011;61997;53.974;11.670;2022-09-27T14:27:20;16.90;;;10.48;;
73693;SDS011;61997;53.974;11.670;2022-09-27T14:29:51;15.88;;;9.60;;
73693;SDS011;61997;53.974;11.670;2022-09-27T14:34:44;16.25;;;10.18;;
73693;SDS011;61997;53.974;11.670;2022-09-27T14:37:21;17.42;;;9.90;;
73693;SDS011;61997;53.974;11.670;2022-09-27T14:39:52;14.10;;;8.25;;
73693;SDS011;61997;53.974;11.670;2022-09-27T14:42:20;16.55;;;9.20;;
73693;SDS011;61997;53.974;11.670;2022-09-27T14:44:50;15.27;;;8.60;;
73693;SDS011;61997;53.974;11.670;2022-09-27T14:47:17;14.00;;;8.63;;
73693;SDS011;61997;53.974;11.670;2022-09-27T14:52:24;12.05;;;8.95;;
73693;SDS011;61997;53.974;11.670;2022-09-27T14:54:59;14.10;;;8.48;;
73693;SDS011;61997;53.974;11.670;2022-09-27T14:57:27;12.13;;;8.05;;
73693;SDS011;61997;53.974;11.670;2022-09-27T14:59:54;13.27;;;8.85;;
73693;SDS011;61997;53.974;11.670;2022-09-27T15:02:21;15.77;;;8.60;;
73693;SDS011;61997;53.974;11.670;2022-09-27T15:04:49;14.32;;;8.75;;
73693;SDS011;61997;53.974;11.670;2022-09-27T15:07:15;13.30;;;8.40;;
73693;SDS011;61997;53.974;11.670;2022-09-27T15:09:42;14.57;;;8.35;;
73693;SDS011;61997;53.974;11.670;2022-09-27T15:12:08;15.77;;;8.70;;
73693;SDS011;61997;53.974;11.670;2022-09-27T15:14:36;17.17;;;8.95;;
73693;SDS011;61997;53.974;11.670;2022-09-27T15:17:12;15.88;;;9.00;;
73693;SDS011;61997;53.974;11.670;2022-09-27T15:19:39;14.40;;;8.48;;
73693;SDS011;61997;53.974;11.670;2022-09-27T15:22:32;15.93;;;9.63;;
73693;SDS011;61997;53.974;11.670;2022-09-27T15:27:55;16.00;;;9.50;;
73693;SDS011;61997;53.974;11.670;2022-09-27T15:30:24;15.63;;;9.15;;
73693;SDS011;61997;53.974;11.670;2022-09-27T15:32:52;18.77;;;9.70;;
73693;SDS011;61997;53.974;11.670;2022-09-27T15:35:24;16.45;;;10.40;;
73693;SDS011;61997;53.974;11.670;2022-09-27T15:37:51;18.85;;;11.27;;
73693;SDS011;61997;53.974;11.670;2022-09-27T15:46:23;19.80;;;11.65;;
73693;SDS011;61997;53.974;11.670;2022-09-27T15:51:41;22.13;;;12.73;;
73693;SDS011;61997;53.974;11.670;2022-09-27T15:54:16;20.75;;;11.88;;
73693;SDS011;61997;53.974;11.670;2022-09-27T15:56:45;22.52;;;12.50;;
73693;SDS011;61997;53.974;11.670;2022-09-27T15:59:15;21.95;;;12.82;;
73693;SDS011;61997;53.974;11.670;2022-09-27T16:01:46;20.23;;;12.23;;
73693;SDS011;61997;53.974;11.670;2022-09-27T16:04:12;20.40;;;12.20;;
73693;SDS011;61997;53.974;11.670;2022-09-27T16:06:37;22.70;;;12.70;;
73693;SDS011;61997;53.974;11.670;2022-09-27T16:09:03;20.55;;;12.65;;
73693;SDS011;61997;53.974;11.670;2022-09-27T16:11:28;23.52;;;13.82;;
73693;SDS011;61997;53.974;11.670;2022-09-27T16:13:53;21.92;;;13.52;;
73693;SDS011;61997;53.974;11.670;2022-09-27T16:16:19;22.10;;;12.98;;
73693;SDS011;61997;53.974;11.670;2022-09-27T16:18:46;20.40;;;12.57;;
73693;SDS011;61997;53.974;11.670;2022-09-27T16:21:12;20.70;;;12.35;;
73693;SDS011;61997;53.974;11.670;2022-09-27T16:23:37;22.17;;;12.07;;
73693;SDS011;61997;53.974;11.670;2022-09-27T16:26:03;21.17;;;11.68;;
73693;SDS011;61997;53.974;11.670;2022-09-27T16:28:30;22.23;;;12.57;;
73693;SDS011;61997;53.974;11.670;2022-09-27T16:30:59;26.35;;;12.57;;
73693;SDS011;61997;53.974;11.670;2022-09-27T16:33:29;21.10;;;11.88;;
73693;SDS011;61997;53.974;11.670;2022-09-27T16:36:03;18.38;;;11.23;;
73693;SDS011;61997;53.974;11.670;2022-09-27T16:38:32;19.52;;;11.23;;
73693;SDS011;61997;53.974;11.670;2022-09-27T16:41:01;20.45;;;12.15;;
73693;SDS011;61997;53.974;11.670;2022-09-27T16:43:30;19.55;;;11.88;;
73693;SDS011;61997;53.974;11.670;2022-09-27T16:46:02;21.73;;;11.65;;
73693;SDS011;61997;53.974;11.670;2022-09-27T16:48:33;18.80;;;11.02;;
73693;SDS011;61997;53.974;11.670;2022-09-27T16:51:06;18.05;;;11.50;;
73693;SDS011;61997;53.974;11.670;2022-09-27T16:54:06;20.58;;;11.40;;
73693;SDS011;61997;53.974;11.670;2022-09-27T16:56:32;20.63;;;12.13;;
73693;SDS011;61997;53.974;11.670;2022-09-27T16:58:59;21.00;;;11.88;;
73693;SDS011;61997;53.974;11.670;2022-09-27T17:01:27;20.48;;;10.65;;
73693;SDS011;61997;53.974;11.670;2022-09-27T17:03:53;21.35;;;11.13;;
73693;SDS011;61997;53.974;11.670;2022-09-27T17:06:18;22.10;;;11.07;;
73693;SDS011;61997;53.974;11.670;2022-09-27T17:08:44;19.08;;;11.25;;
73693;SDS011;61997;53.974;11.670;2022-09-27T17:11:14;17.60;;;11.30;;
73693;SDS011;61997;53.974;11.670;2022-09-27T17:13:41;17.88;;;11.10;;
73693;SDS011;61997;53.974;11.670;2022-09-27T17:16:07;19.58;;;10.68;;
73693;SDS011;61997;53.974;11.670;2022-09-27T17:18:32;17.92;;;9.77;;
73693;SDS011;61997;53.974;11.670;2022-09-27T17:21:01;18.00;;;10.00;;
73693;SDS011;61997;53.974;11.670;2022-09-27T17:23:28;17.23;;;10.27;;
73693;SDS011;61997;53.974;11.670;2022-09-27T17:25:59;16.83;;;10.10;;
73693;SDS011;61997;53.974;11.670;2022-09-27T17:28:27;19.10;;;9.95;;
73693;SDS011;61997;53.974;11.670;2022-09-27T17:30:52;16.98;;;10.43;;
73693;SDS011;61997;53.974;11.670;2022-09-27T17:33:20;14.35;;;8.75;;
73693;SDS011;61997;53.974;11.670;2022-09-27T17:35:46;18.20;;;10.60;;